ADDS METAR Data INFO
IDs: Format: Raw Decoded Include TAF

Data at: 1940 UTC 17 Feb 2018

KGCK 171854Z 02018G32KT 10SM CLR 12/M12 A3013 RMK AO2 PK WND 01033/1755 SLP207 T01221122
KGCK 171754Z 01025G33KT 10SM CLR 12/M12 A3014 RMK AO2 PK WND 36037/1656 SLP212 T01171122 10117 21044 51024
KGCK 171654Z 36027G37KT 10SM CLR 10/M11 A3013 RMK AO2 PK WND 36042/1639 SLP209 T01001111
KGCK 171554Z 35019G27KT 10SM CLR 07/M08 A3010 RMK AO2 PK WND 36027/1550 SLP205 T00671078
KGCK 171454Z 34011KT 10SM CLR 02/M07 A3007 RMK AO2 SLP197 T00221072 53038
KGCK 171354Z 35007KT 10SM CLR M04/M08 A3002 RMK AO2 SLP189 T10441083
KGCK 171254Z AUTO 01014KT 10SM CLR M01/M07 A2998 RMK AO2 SLP170 T10061072
KGCK 171154Z AUTO 34009KT 10SM CLR M02/M07 A2994 RMK AO2 SLP156 T10171072 10011 21022 53034
KGCK 171054Z AUTO 32011KT 10SM CLR 00/M05 A2990 RMK AO2 SLP138 T00001050
KGCK 170954Z AUTO 23007KT 10SM CLR M02/M06 A2985 RMK AO2 SLP124 T10171061
KGCK 170854Z AUTO 20010KT 10SM CLR M02/M07 A2984 RMK AO2 SLP118 T10171072 56017
KGCK 170754Z AUTO 19012KT 10SM CLR M01/M08 A2984 RMK AO2 SLP121 T10061078
KGCK 170654Z AUTO 18016G24KT 10SM CLR 00/M08 A2986 RMK AO2 PK WND 18027/0604 SLP129 T00001083
KGCK 170554Z AUTO 17015G27KT 10SM CLR 01/M09 A2989 RMK AO2 PK WND 18028/0522 SLP140 T00061089 10022 21006 400441094 58036
KGCK 170454Z AUTO 17014G24KT 10SM CLR 00/M09 A2993 RMK AO2 SLP156 T00001089
KGCK 170354Z AUTO 16011KT 10SM CLR 00/M09 A2997 RMK AO2 SLP172 T00001094
KGCK 170254Z 16011KT 10SM CLR M01/M09 A3001 RMK AO2 SLP187 T10061094 58032
KGCK 170154Z 17014KT 10SM CLR 00/M09 A3006 RMK AO2 SLP207 T00001094
KGCK 170054Z 17009KT 10SM CLR 01/M09 A3008 RMK AO2 SLP211 T00061094
KGCK 162354Z 18015KT 10SM CLR 02/M09 A3011 RMK AO2 SLP218 T00221094 10044 21011 58033
KGCK 162254Z 19014KT 10SM CLR 03/M09 A3015 RMK AO2 SLP231 T00281094
KGCK 162154Z 18012G20KT 10SM CLR 04/M09 A3018 RMK AO2 SLP239 T00391094
KGCK 162054Z 17010G17KT 10SM CLR 03/M10 A3022 RMK AO2 SLP251 T00281100 58051
KGCK 161954Z 19007KT 10SM CLR 01/M10 A3027 RMK AO2 PRESFR SLP270 T00111100
KGCK 161854Z 19009KT 10SM CLR 00/M11 A3034 RMK AO2 SLP294 T00001106
KGCK 161754Z 12004KT 10SM CLR M02/M11 A3038 RMK AO2 SLP308 T10171106 11017 21094 58011
KGCK 161654Z 00000KT 10SM CLR M04/M11 A3041 RMK AO2 SLP323 T10391106
KGCK 161554Z 03007KT 10SM CLR M05/M11 A3042 RMK AO2 SLP325 T10501106
KGCK 161454Z 03008KT 10SM CLR M06/M10 A3041 RMK AO2 SLP318 T10611100 51008
KGCK 161354Z 35007KT 10SM CLR M09/M12 A3041 RMK AO2 SLP320 T10941117
KGCK 161254Z AUTO 01009KT 10SM CLR M07/M11 A3040 RMK AO2 SLP310 T10671106
KGCK 161154Z AUTO 35011KT 10SM FEW100 M06/M10 A3039 RMK AO2 SLP304 T10611100 10017 21067 53012
KGCK 161054Z AUTO 36013KT 10SM CLR M06/M10 A3038 RMK AO2 SLP299 T10611100
KGCK 160954Z AUTO 36018G25KT 10SM SCT020 M04/M09 A3036 RMK AO2 PK WND 01028/0913 SLP287 T10441089
KGCK 160854Z AUTO 01018KT 10SM OVC015 M03/M07 A3035 RMK AO2 PK WND 01030/0820 SLP281 T10281067 51041
KGCK 160827Z AUTO 01020G30KT 10SM SCT010 OVC019 M03/M07 A3035 RMK AO2 PK WND 01030/0820 T10281067
KGCK 160754Z AUTO 01020G31KT 10SM OVC010 M02/M05 A3032 RMK AO2 PK WND 01032/0701 SLP269 T10221050